Accueil
METAR-TAF:

METAR-TAF

Aéroports :

Novare, Italie

Base aérienne Cameri

latitude: 45-31N, longitude: 008-40E, altitude: 178 m

Observation

Le bulletin a été fait il y a 6 heures et 44 minutes, à 17:55 UTC
Vent 6 kt de sud/sud-est, variant entre nord-est et sud
Température 25°C
Humidité 47%
Pression 1014 hPa
Visibilité 10 km ou plus
pas de nuages en-dessous de 1500 mètres et pas de cumulonimbus.

METAR: LIMN 231755Z 15006KT 040V190 CAVOK 25/13 Q1014 RMK FEW FEW080 VIS MIN 9999 BLU

Heure: 02:39 (00:39 UTC)

Prévision

Le bulletin a été fait il y a 7 heures et 39 minutes, à 17:00 UTC
Prévision valable du 23 à 18 UTC au 24 à 03 UTC
Vent 4 kt de sud/sud-ouest
Visibilité 10 km ou plus
Nuages épars à une hauteur de 7000 ft

TAF: LIMN 231700Z 2318/2403 20004KT 9999 SCT070

Observations et prévisions météorologiques de plus de 4000 aéroports (messages METAR et TAF).

Les stations disponibles sont représentées par des disques jaunes et rouges sur la carte.

Passer la souris dessus pour voir le nom de la station.

Cliquer dessus pour voir les observations et prévisions météorologiques.

Pour changer de carte: cliquez sur les boutons verts avec une croix noire pour zoomer, sur le bouton vert avec un tiret pour effectuer un zoom arrière, ou sur les flèches vertes pour les cartes adjacentes.


METAR-TAF: